createdAt,value
2022-11-16T00:09:38.890Z,85.97
2022-11-16T00:19:40.289Z,88.12
2022-11-16T00:29:39.318Z,89.66
2022-11-16T00:39:39.642Z,89.66
2022-11-16T00:49:39.685Z,90.89
2022-11-16T00:59:40.012Z,91.82
2022-11-16T01:09:40.031Z,92.06
2022-11-16T01:19:40.476Z,93.49
2022-11-16T01:29:40.501Z,93.90
2022-11-16T01:39:44.941Z,94.87
2022-11-16T01:49:40.965Z,95.74
2022-11-16T01:59:41.332Z,96.04
2022-11-16T02:09:41.376Z,96.77
2022-11-16T02:19:41.707Z,97.28
2022-11-16T02:29:41.782Z,98.35
2022-11-16T02:39:42.059Z,98.86
2022-11-16T02:49:42.086Z,99.07
2022-11-16T02:59:42.638Z,99.68
2022-11-16T03:09:42.475Z,99.12
2022-11-16T03:19:42.803Z,98.82
2022-11-16T03:29:42.831Z,98.92
2022-11-16T03:39:44.245Z,98.20
2022-11-16T03:49:43.420Z,98.92
2022-11-16T03:59:43.545Z,99.68
2022-11-16T04:09:43.601Z,99.99
2022-11-16T04:19:43.883Z,99.99
2022-11-16T04:29:43.956Z,99.99
2022-11-16T04:39:44.231Z,99.99
2022-11-16T04:49:44.260Z,99.17
2022-11-16T04:59:44.587Z,98.86
2022-11-16T05:09:44.617Z,99.48
2022-11-16T05:19:45.028Z,99.99
2022-11-16T05:29:45.045Z,99.99
2022-11-16T05:39:45.398Z,98.66
2022-11-16T05:49:45.429Z,98.41
2022-11-16T05:59:46.488Z,98.30
2022-11-16T06:09:59.047Z,98.66
2022-11-16T06:19:46.078Z,99.27
2022-11-16T06:29:47.354Z,99.73
2022-11-16T06:39:46.581Z,99.58
2022-11-16T06:49:47.822Z,99.17
2022-11-16T06:59:47.132Z,98.55
2022-11-16T07:09:48.203Z,98.61
2022-11-16T07:19:47.420Z,97.58
2022-11-16T07:29:47.762Z,96.82
2022-11-16T07:39:47.784Z,97.74
2022-11-16T07:49:48.118Z,97.54
2022-11-16T07:59:48.167Z,96.82
2022-11-16T08:09:48.527Z,98.21
2022-11-16T08:19:48.550Z,98.78
2022-11-16T08:29:48.959Z,98.37
2022-11-16T08:39:48.987Z,98.90
2022-11-16T08:49:49.845Z,98.58
2022-11-16T08:59:49.386Z,97.87
2022-11-16T09:09:49.702Z,98.33
2022-11-16T09:19:49.723Z,98.49
2022-11-16T09:29:49.970Z,98.90
2022-11-16T09:39:50.194Z,99.05
2022-11-16T09:49:50.457Z,98.65
2022-11-16T09:59:50.656Z,98.60
2022-11-16T10:09:50.902Z,94.82
2022-11-16T10:19:51.138Z,88.92
2022-11-16T10:29:51.381Z,86.39
2022-11-16T10:39:51.605Z,86.39
2022-11-16T10:49:51.851Z,89.71
2022-11-16T10:59:52.084Z,89.20
2022-11-16T11:09:52.422Z,83.74
2022-11-16T11:19:52.472Z,81.51
2022-11-16T11:29:53.718Z,76.70
2022-11-16T11:39:52.980Z,68.23
2022-11-16T11:49:53.298Z,65.13
2022-11-16T11:59:53.323Z,65.16
2022-11-16T12:09:53.642Z,70.39
2022-11-16T12:19:53.671Z,68.97
2022-11-16T12:29:54.009Z,69.48
2022-11-16T12:39:54.043Z,67.12
2022-11-16T12:49:54.387Z,64.87
2022-11-16T12:59:54.409Z,65.04
2022-11-16T13:09:54.647Z,65.07
2022-11-16T13:19:54.888Z,66.07
2022-11-16T13:29:55.246Z,64.86
2022-11-16T13:39:55.284Z,66.19
2022-11-16T13:49:55.595Z,69.60
2022-11-16T13:59:57.836Z,71.80
2022-11-16T14:09:55.966Z,74.48
2022-11-16T14:19:55.994Z,76.31
2022-11-16T14:29:56.263Z,75.73
2022-11-16T14:39:56.494Z,76.42
2022-11-16T14:49:58.759Z,77.87
2022-11-16T14:59:56.987Z,77.81
2022-11-16T15:09:57.282Z,79.17
2022-11-16T15:19:57.323Z,80.64
2022-11-16T15:29:57.668Z,81.39
2022-11-16T15:39:57.795Z,81.94
2022-11-16T15:49:57.919Z,82.73
2022-11-16T15:59:57.959Z,84.30
2022-11-16T16:09:58.289Z,85.06
2022-11-16T16:19:58.324Z,86.12
2022-11-16T16:29:58.677Z,84.81
2022-11-16T16:39:58.704Z,85.36
2022-11-16T16:49:58.833Z,84.31
2022-11-16T16:59:59.042Z,81.31
2022-11-16T17:09:59.335Z,83.13
2022-11-16T17:19:59.150Z,84.80
2022-11-16T17:29:59.298Z,87.24
2022-11-16T17:39:59.596Z,86.90
2022-11-16T17:49:59.757Z,86.79
2022-11-16T17:59:59.798Z,87.70
2022-11-16T18:10:00.112Z,87.18
2022-11-16T18:20:00.143Z,88.76
2022-11-16T18:30:00.495Z,88.08
2022-11-16T18:40:00.661Z,87.98
2022-11-16T18:50:02.816Z,88.02
2022-11-16T19:00:00.947Z,88.47
2022-11-16T19:10:01.139Z,85.82
2022-11-16T19:20:01.415Z,84.59
2022-11-16T19:30:02.286Z,84.22
2022-11-16T19:40:01.737Z,83.70
2022-11-16T19:50:01.860Z,82.78
2022-11-16T20:00:02.034Z,80.65
2022-11-16T20:10:02.251Z,81.62
2022-11-16T20:20:02.364Z,81.00
2022-11-16T20:30:07.942Z,84.09
2022-11-16T20:40:03.696Z,86.16
2022-11-16T20:50:04.614Z,88.72
2022-11-16T21:00:02.804Z,86.27
2022-11-16T21:10:03.110Z,80.60
2022-11-16T21:20:26.250Z,81.87
2022-11-16T21:30:04.132Z,81.73
2022-11-16T21:40:06.552Z,81.46
2022-11-16T22:00:04.766Z,79.98
2022-11-16T22:10:04.109Z,78.96
2022-11-16T22:20:04.301Z,78.40
2022-11-16T22:30:04.413Z,75.49
2022-11-16T22:40:04.541Z,74.57
2022-11-16T22:50:05.032Z,74.15
2022-11-16T23:00:05.332Z,76.76
2022-11-16T23:10:05.412Z,76.65
2022-11-16T23:20:05.319Z,75.15
2022-11-16T23:30:11.884Z,74.94
2022-11-16T23:40:06.622Z,73.91
2022-11-16T23:50:08.984Z,71.97
